Prattsville, Arkansas
Current Conditions -  °F | °C
As of 1:56 PM on Monday 26 Jan 2015 (Local Time) from KADF Reporting Station
Clear Clear  
Wind Chill: 59°   Ceiling: Unl
Heat Index: 59°   Visibility: 10mi
Dew Point: 35°   Wind: 3mph
Humidity: 40%   Direction: NA
Pressure: 30.06"   Gusts: NA
Location:  34.31°N, 92.55°W
Report Text: KADF 261956Z AUTO VRB03KT 10SM CLR 15/02 A3006 RMK AO2 T01500016 SLP192
Loading
Personal Weather Stations






























Interactive Weather Map New forecast layout! Learn more

10-Day Weather Forecast

Advertisements
Track Severe Weather on mobile